sensor_id;sensor_type;location;lat;lon;timestamp;pressure;altitude;pressure_sealevel;temperature;humidity
59767;BME280;46248;58.364;25.582;2022-09-09T00:01:08;101907.38;;;3.85;82.13
59767;BME280;46248;58.364;25.582;2022-09-09T00:04:35;101909.97;;;3.79;82.32
59767;BME280;46248;58.364;25.582;2022-09-09T00:07:59;101911.72;;;3.75;82.52
59767;BME280;46248;58.364;25.582;2022-09-09T00:11:29;101920.34;;;3.73;82.83
59767;BME280;46248;58.364;25.582;2022-09-09T00:14:58;101905.66;;;3.67;82.80
59767;BME280;46248;58.364;25.582;2022-09-09T00:18:27;101915.16;;;3.68;82.70
59767;BME280;46248;58.364;25.582;2022-09-09T00:21:59;101913.41;;;3.62;83.08
59767;BME280;46248;58.364;25.582;2022-09-09T00:25:29;101908.22;;;3.53;83.23
59767;BME280;46248;58.364;25.582;2022-09-09T00:28:58;101911.69;;;3.52;83.72
59767;BME280;46248;58.364;25.582;2022-09-09T00:32:28;101913.41;;;3.44;83.60
59767;BME280;46248;58.364;25.582;2022-09-09T00:35:56;101911.69;;;3.46;83.64
59767;BME280;46248;58.364;25.582;2022-09-09T00:39:25;101909.09;;;3.46;83.21
59767;BME280;46248;58.364;25.582;2022-09-09T00:42:59;101900.47;;;3.44;83.73
59767;BME280;46248;58.364;25.582;2022-09-09T00:46:56;101899.59;;;3.43;83.82
59767;BME280;46248;58.364;25.582;2022-09-09T00:50:33;101906.53;;;3.43;83.84
59767;BME280;46248;58.364;25.582;2022-09-09T00:54:11;101896.16;;;3.38;84.28
59767;BME280;46248;58.364;25.582;2022-09-09T00:57:35;101905.66;;;3.41;83.90
59767;BME280;46248;58.364;25.582;2022-09-09T01:01:03;101903.06;;;3.35;83.07
59767;BME280;46248;58.364;25.582;2022-09-09T01:04:34;101915.13;;;3.34;83.79
59767;BME280;46248;58.364;25.582;2022-09-09T01:08:01;101909.09;;;3.32;83.40
59767;BME280;46248;58.364;25.582;2022-09-09T01:11:28;101906.50;;;3.31;83.63
59767;BME280;46248;58.364;25.582;2022-09-09T01:15:03;101897.88;;;3.24;83.67
59767;BME280;46248;58.364;25.582;2022-09-09T01:18:28;101908.22;;;3.26;84.32
59767;BME280;46248;58.364;25.582;2022-09-09T01:22:00;101906.50;;;3.23;83.96
59767;BME280;46248;58.364;25.582;2022-09-09T01:25:30;101902.19;;;3.19;84.29
59767;BME280;46248;58.364;25.582;2022-09-09T01:28:55;101889.19;;;3.05;84.76
59767;BME280;46248;58.364;25.582;2022-09-09T01:32:42;101900.44;;;3.13;84.49
59767;BME280;46248;58.364;25.582;2022-09-09T01:36:09;101901.28;;;3.11;85.00
59767;BME280;46248;58.364;25.582;2022-09-09T01:39:36;101900.44;;;3.09;84.39
59767;BME280;46248;58.364;25.582;2022-09-09T01:43:00;101902.16;;;3.05;84.65
59767;BME280;46248;58.364;25.582;2022-09-09T01:46:25;101894.38;;;3.01;84.94
59767;BME280;46248;58.364;25.582;2022-09-09T01:49:49;101906.47;;;2.97;85.06
59767;BME280;46248;58.364;25.582;2022-09-09T01:53:12;101902.13;;;2.93;84.58
59767;BME280;46248;58.364;25.582;2022-09-09T01:56:45;101898.69;;;2.88;85.33
59767;BME280;46248;58.364;25.582;2022-09-09T02:00:11;101897.81;;;2.89;85.22
59767;BME280;46248;58.364;25.582;2022-09-09T02:03:36;101896.94;;;2.85;85.22
59767;BME280;46248;58.364;25.582;2022-09-09T02:07:00;101897.78;;;2.81;85.32
59767;BME280;46248;58.364;25.582;2022-09-09T02:10:30;101892.59;;;2.77;85.04
59767;BME280;46248;58.364;25.582;2022-09-09T02:13:57;101897.75;;;2.78;85.47
59767;BME280;46248;58.364;25.582;2022-09-09T02:17:26;101897.78;;;2.80;85.11
59767;BME280;46248;58.364;25.582;2022-09-09T02:20:53;101885.72;;;2.75;85.10
59767;BME280;46248;58.364;25.582;2022-09-09T02:24:16;101896.06;;;2.79;85.42
59767;BME280;46248;58.364;25.582;2022-09-09T02:27:41;101899.50;;;2.79;85.60
59767;BME280;46248;58.364;25.582;2022-09-09T02:31:05;101887.44;;;2.77;85.32
59767;BME280;46248;58.364;25.582;2022-09-09T02:34:30;101883.97;;;2.78;84.73
59767;BME280;46248;58.364;25.582;2022-09-09T02:38:00;101895.16;;;2.75;84.66
59767;BME280;46248;58.364;25.582;2022-09-09T02:41:28;101891.72;;;2.71;85.57
59767;BME280;46248;58.364;25.582;2022-09-09T02:44:54;101895.16;;;2.72;85.25
59767;BME280;46248;58.364;25.582;2022-09-09T02:48:23;101890.84;;;2.68;85.03
59767;BME280;46248;58.364;25.582;2022-09-09T02:51:53;101878.72;;;2.53;85.43
59767;BME280;46248;58.364;25.582;2022-09-09T02:55:27;101888.22;;;2.60;85.71
59767;BME280;46248;58.364;25.582;2022-09-09T02:58:53;101891.66;;;2.59;85.80
59767;BME280;46248;58.364;25.582;2022-09-09T03:02:16;101870.94;;;2.50;86.09
59767;BME280;46248;58.364;25.582;2022-09-09T03:05:40;101890.81;;;2.60;85.84
59767;BME280;46248;58.364;25.582;2022-09-09T03:09:03;101894.28;;;2.61;86.64
59767;BME280;46248;58.364;25.582;2022-09-09T03:12:28;101888.22;;;2.60;85.97
59767;BME280;46248;58.364;25.582;2022-09-09T03:15:54;101882.19;;;2.60;86.50
59767;BME280;46248;58.364;25.582;2022-09-09T03:19:17;101892.53;;;2.60;86.30
59767;BME280;46248;58.364;25.582;2022-09-09T03:22:41;101888.22;;;2.57;86.58
59767;BME280;46248;58.364;25.582;2022-09-09T03:26:05;101886.50;;;2.56;85.90
59767;BME280;46248;58.364;25.582;2022-09-09T03:29:29;101892.53;;;2.55;85.89
59767;BME280;46248;58.364;25.582;2022-09-09T03:32:52;101895.94;;;2.54;86.82
59767;BME280;46248;58.364;25.582;2022-09-09T03:36:17;101893.38;;;2.54;86.99
59767;BME280;46248;58.364;25.582;2022-09-09T03:39:39;101893.38;;;2.52;87.04
59767;BME280;46248;58.364;25.582;2022-09-09T03:43:02;101895.09;;;2.53;87.04
59767;BME280;46248;58.364;25.582;2022-09-09T03:46:26;101894.25;;;2.51;86.44
59767;BME280;46248;58.364;25.582;2022-09-09T03:49:49;101901.97;;;2.50;86.67
59767;BME280;46248;58.364;25.582;2022-09-09T03:53:11;101895.09;;;2.49;86.55
59767;BME280;46248;58.364;25.582;2022-09-09T03:56:35;101901.97;;;2.50;86.78
59767;BME280;46248;58.364;25.582;2022-09-09T03:59:58;101899.41;;;2.50;86.97
59767;BME280;46248;58.364;25.582;2022-09-09T04:03:24;101896.84;;;2.51;87.75
59767;BME280;46248;58.364;25.582;2022-09-09T04:06:48;101896.84;;;2.56;86.84
59767;BME280;46248;58.364;25.582;2022-09-09T04:10:12;101904.59;;;2.59;87.19
59767;BME280;46248;58.364;25.582;2022-09-09T04:13:35;101904.63;;;2.62;87.51
59767;BME280;46248;58.364;25.582;2022-09-09T04:16:58;101904.66;;;2.70;87.29
59767;BME280;46248;58.364;25.582;2022-09-09T04:20:23;101908.09;;;2.73;87.55
59767;BME280;46248;58.364;25.582;2022-09-09T04:23:46;101911.56;;;2.77;87.77
59767;BME280;46248;58.364;25.582;2022-09-09T04:27:09;101912.44;;;2.81;87.52
59767;BME280;46248;58.364;25.582;2022-09-09T04:30:33;101911.59;;;2.86;87.39
59767;BME280;46248;58.364;25.582;2022-09-09T04:33:57;101904.69;;;2.93;87.58
59767;BME280;46248;58.364;25.582;2022-09-09T04:37:24;101906.44;;;3.02;88.04
59767;BME280;46248;58.364;25.582;2022-09-09T04:40:48;101903.91;;;3.12;87.90
59767;BME280;46248;58.364;25.582;2022-09-09T04:44:15;101913.41;;;3.29;88.03
59767;BME280;46248;58.364;25.582;2022-09-09T04:47:38;101900.47;;;3.44;88.00
59767;BME280;46248;58.364;25.582;2022-09-09T04:51:03;101903.94;;;3.67;87.90
59767;BME280;46248;58.364;25.582;2022-09-09T04:54:28;101904.78;;;3.88;87.85
59767;BME280;46248;58.364;25.582;2022-09-09T04:57:51;101909.06;;;4.07;86.61
59767;BME280;46248;58.364;25.582;2022-09-09T05:01:16;101901.25;;;4.24;87.20
59767;BME280;46248;58.364;25.582;2022-09-09T05:04:39;101903.78;;;4.38;85.88
59767;BME280;46248;58.364;25.582;2022-09-09T05:08:02;101903.75;;;4.52;86.29
59767;BME280;46248;58.364;25.582;2022-09-09T05:11:28;101904.53;;;4.68;86.47
59767;BME280;46248;58.364;25.582;2022-09-09T05:14:52;101893.25;;;4.76;86.04
59767;BME280;46248;58.364;25.582;2022-09-09T05:18:14;101906.97;;;4.98;85.34
59767;BME280;46248;58.364;25.582;2022-09-09T05:21:37;101907.72;;;5.16;84.41
59767;BME280;46248;58.364;25.582;2022-09-09T05:25:00;101909.34;;;5.34;83.70
59767;BME280;46248;58.364;25.582;2022-09-09T05:28:25;101910.03;;;5.53;83.27
59767;BME280;46248;58.364;25.582;2022-09-09T05:31:51;101905.56;;;5.68;82.40
59767;BME280;46248;58.364;25.582;2022-09-09T05:35:15;101913.19;;;5.87;82.25
59767;BME280;46248;58.364;25.582;2022-09-09T05:38:40;101908.75;;;6.04;82.19
59767;BME280;46248;58.364;25.582;2022-09-09T05:42:05;101913.75;;;6.23;81.64
59767;BME280;46248;58.364;25.582;2022-09-09T05:45:30;101910.97;;;6.39;80.87
59767;BME280;46248;58.364;25.582;2022-09-09T05:48:54;101917.66;;;6.60;80.25
59767;BME280;46248;58.364;25.582;2022-09-09T05:52:17;101923.47;;;6.81;79.34
59767;BME280;46248;58.364;25.582;2022-09-09T05:55:39;101918.97;;;6.94;79.70
59767;BME280;46248;58.364;25.582;2022-09-09T05:59:03;101913.53;;;7.07;77.73
59767;BME280;46248;58.364;25.582;2022-09-09T06:02:28;101912.50;;;7.21;77.71
59767;BME280;46248;58.364;25.582;2022-09-09T06:05:57;101912.22;;;7.39;77.88
59767;BME280;46248;58.364;25.582;2022-09-09T06:09:21;101917.94;;;7.61;76.00
59767;BME280;46248;58.364;25.582;2022-09-09T06:12:44;101914.22;;;7.74;76.73
59767;BME280;46248;58.364;25.582;2022-09-09T06:16:08;101922.47;;;8.01;75.90
59767;BME280;46248;58.364;25.582;2022-09-09T06:19:34;101921.31;;;8.17;74.31
59767;BME280;46248;58.364;25.582;2022-09-09T06:22:57;101922.00;;;8.25;73.49
59767;BME280;46248;58.364;25.582;2022-09-09T06:26:22;101921.66;;;8.44;73.58
59767;BME280;46248;58.364;25.582;2022-09-09T06:29:46;101927.34;;;8.66;72.67
59767;BME280;46248;58.364;25.582;2022-09-09T06:33:09;101926.88;;;8.87;72.64
59767;BME280;46248;58.364;25.582;2022-09-09T06:36:35;101917.78;;;9.05;71.46
59767;BME280;46248;58.364;25.582;2022-09-09T06:39:58;101918.16;;;9.26;71.73
59767;BME280;46248;58.364;25.582;2022-09-09T06:43:20;101926.31;;;9.49;71.31
59767;BME280;46248;58.364;25.582;2022-09-09T06:46:44;101920.47;;;9.74;71.37
59767;BME280;46248;58.364;25.582;2022-09-09T06:50:08;101909.53;;;9.92;68.90
59767;BME280;46248;58.364;25.582;2022-09-09T06:53:34;101919.69;;;10.04;67.88
59767;BME280;46248;58.364;25.582;2022-09-09T06:57:03;101922.03;;;10.15;67.63
59767;BME280;46248;58.364;25.582;2022-09-09T07:00:48;101918.09;;;10.31;68.03
59767;BME280;46248;58.364;25.582;2022-09-09T07:04:11;101914.09;;;10.51;67.60
59767;BME280;46248;58.364;25.582;2022-09-09T07:07:35;101919.72;;;10.67;65.79
59767;BME280;46248;58.364;25.582;2022-09-09T07:11:03;101923.75;;;10.78;64.51
59767;BME280;46248;58.364;25.582;2022-09-09T07:14:32;101924.16;;;10.94;62.43
59767;BME280;46248;58.364;25.582;2022-09-09T07:17:55;101923.06;;;11.02;62.64
59767;BME280;46248;58.364;25.582;2022-09-09T07:21:17;101933.19;;;11.14;62.94
59767;BME280;46248;58.364;25.582;2022-09-09T07:24:42;101933.88;;;11.19;61.85
59767;BME280;46248;58.364;25.582;2022-09-09T07:28:07;101935.31;;;11.29;61.57
59767;BME280;46248;58.364;25.582;2022-09-09T07:31:32;101938.31;;;11.45;61.36
59767;BME280;46248;58.364;25.582;2022-09-09T07:34:55;101937.84;;;11.59;60.46
59767;BME280;46248;58.364;25.582;2022-09-09T07:38:19;101940.03;;;11.73;60.29
59767;BME280;46248;58.364;25.582;2022-09-09T07:41:44;101927.63;;;11.78;59.79
59767;BME280;46248;58.364;25.582;2022-09-09T07:45:10;101929.00;;;11.89;58.54
59767;BME280;46248;58.364;25.582;2022-09-09T07:48:33;101931.94;;;12.05;59.26
59767;BME280;46248;58.364;25.582;2022-09-09T07:51:57;101932.38;;;12.18;58.46
59767;BME280;46248;58.364;25.582;2022-09-09T07:55:20;101926.97;;;12.23;55.49
59767;BME280;46248;58.364;25.582;2022-09-09T07:58:45;101929.59;;;12.23;55.12
59767;BME280;46248;58.364;25.582;2022-09-09T08:02:10;101927.00;;;12.21;56.74
59767;BME280;46248;58.364;25.582;2022-09-09T08:05:32;101928.81;;;12.19;56.01
59767;BME280;46248;58.364;25.582;2022-09-09T08:08:55;101935.59;;;12.26;54.97
59767;BME280;46248;58.364;25.582;2022-09-09T08:12:18;101929.19;;;12.33;55.45
59767;BME280;46248;58.364;25.582;2022-09-09T08:15:41;101927.88;;;12.45;56.76
59767;BME280;46248;58.364;25.582;2022-09-09T08:19:06;101934.25;;;12.63;54.99
59767;BME280;46248;58.364;25.582;2022-09-09T08:22:30;101925.03;;;12.75;55.54
59767;BME280;46248;58.364;25.582;2022-09-09T08:25:52;101930.09;;;12.79;54.29
59767;BME280;46248;58.364;25.582;2022-09-09T08:29:15;101930.00;;;12.82;55.13
59767;BME280;46248;58.364;25.582;2022-09-09T08:32:41;101930.56;;;12.91;54.96
59767;BME280;46248;58.364;25.582;2022-09-09T08:36:10;101930.16;;;13.01;54.68
59767;BME280;46248;58.364;25.582;2022-09-09T08:39:34;101924.78;;;13.04;51.42
59767;BME280;46248;58.364;25.582;2022-09-09T08:42:59;101931.66;;;13.07;53.22
59767;BME280;46248;58.364;25.582;2022-09-09T08:46:26;101931.38;;;13.15;53.16
59767;BME280;46248;58.364;25.582;2022-09-09T08:50:02;101926.59;;;13.26;48.76
59767;BME280;46248;58.364;25.582;2022-09-09T08:53:35;101928.31;;;13.27;51.05
59767;BME280;46248;58.364;25.582;2022-09-09T08:57:00;101925.50;;;13.32;50.60
59767;BME280;46248;58.364;25.582;2022-09-09T09:00:44;101920.41;;;13.27;50.22
59767;BME280;46248;58.364;25.582;2022-09-09T09:04:26;101927.19;;;13.33;47.55
59767;BME280;46248;58.364;25.582;2022-09-09T09:08:02;101922.88;;;13.32;46.95
59767;BME280;46248;58.364;25.582;2022-09-09T09:11:35;101919.91;;;13.39;46.65
59767;BME280;46248;58.364;25.582;2022-09-09T09:14:59;101923.22;;;13.44;50.03
59767;BME280;46248;58.364;25.582;2022-09-09T09:18:22;101924.63;;;13.53;49.64
59767;BME280;46248;58.364;25.582;2022-09-09T09:21:49;101920.00;;;13.58;48.75
59767;BME280;46248;58.364;25.582;2022-09-09T09:25:17;101920.81;;;13.60;48.89
59767;BME280;46248;58.364;25.582;2022-09-09T09:28:41;101925.56;;;13.72;48.51
59767;BME280;46248;58.364;25.582;2022-09-09T09:32:05;101914.75;;;13.79;48.34
59767;BME280;46248;58.364;25.582;2022-09-09T09:35:30;101916.25;;;13.86;47.96
59767;BME280;46248;58.364;25.582;2022-09-09T09:39:02;101905.56;;;13.89;49.24
59767;BME280;46248;58.364;25.582;2022-09-09T09:42:52;101903.31;;;14.00;48.66
59767;BME280;46248;58.364;25.582;2022-09-09T09:46:21;101901.25;;;14.07;47.82
59767;BME280;46248;58.364;25.582;2022-09-09T09:49:53;101898.50;;;14.10;47.72
59767;BME280;46248;58.364;25.582;2022-09-09T09:53:21;101899.38;;;14.10;48.36
59767;BME280;46248;58.364;25.582;2022-09-09T09:56:46;101886.25;;;14.09;48.19
59767;BME280;46248;58.364;25.582;2022-09-09T10:00:14;101879.00;;;14.14;48.05
59767;BME280;46248;58.364;25.582;2022-09-09T10:03:51;101884.34;;;14.12;46.88
59767;BME280;46248;58.364;25.582;2022-09-09T10:07:19;101877.25;;;13.94;47.31
59767;BME280;46248;58.364;25.582;2022-09-09T10:14:39;101874.16;;;13.84;48.48
59767;BME280;46248;58.364;25.582;2022-09-09T10:18:18;101877.13;;;13.97;47.65
59767;BME280;46248;58.364;25.582;2022-09-09T10:22:05;101875.72;;;14.09;45.82
59767;BME280;46248;58.364;25.582;2022-09-09T10:25:42;101860.28;;;14.01;46.72
59767;BME280;46248;58.364;25.582;2022-09-09T10:29:31;101865.03;;;14.12;46.21
59767;BME280;46248;58.364;25.582;2022-09-09T10:33:07;101866.97;;;14.08;45.94
59767;BME280;46248;58.364;25.582;2022-09-09T10:36:33;101867.16;;;14.04;47.22
59767;BME280;46248;58.364;25.582;2022-09-09T10:40:04;101860.13;;;14.04;47.38
59767;BME280;46248;58.364;25.582;2022-09-09T10:43:47;101870.53;;;14.07;46.15
59767;BME280;46248;58.364;25.582;2022-09-09T10:47:35;101869.75;;;14.05;45.94
59767;BME280;46248;58.364;25.582;2022-09-09T10:51:15;101868.94;;;14.03;45.28
59767;BME280;46248;58.364;25.582;2022-09-09T10:54:52;101868.66;;;14.09;47.40
59767;BME280;46248;58.364;25.582;2022-09-09T10:58:23;101859.63;;;14.15;47.04
59767;BME280;46248;58.364;25.582;2022-09-09T11:01:51;101860.16;;;14.23;48.02
59767;BME280;46248;58.364;25.582;2022-09-09T11:05:18;101865.16;;;14.29;46.51
59767;BME280;46248;58.364;25.582;2022-09-09T11:08:42;101864.16;;;14.32;47.03
59767;BME280;46248;58.364;25.582;2022-09-09T11:12:05;101864.31;;;14.29;46.71
59767;BME280;46248;58.364;25.582;2022-09-09T11:15:39;101859.31;;;14.23;46.82
59767;BME280;46248;58.364;25.582;2022-09-09T11:19:11;101861.44;;;14.14;46.11
59767;BME280;46248;58.364;25.582;2022-09-09T11:22:39;101857.16;;;14.12;47.54
59767;BME280;46248;58.364;25.582;2022-09-09T11:26:07;101863.91;;;14.17;48.37
59767;BME280;46248;58.364;25.582;2022-09-09T11:30:11;101851.47;;;14.21;46.63
59767;BME280;46248;58.364;25.582;2022-09-09T11:34:14;101856.59;;;14.24;45.51
59767;BME280;46248;58.364;25.582;2022-09-09T11:37:56;101847.78;;;14.25;46.46
59767;BME280;46248;58.364;25.582;2022-09-09T11:41:34;101849.06;;;14.35;47.26
59767;BME280;46248;58.364;25.582;2022-09-09T11:44:57;101846.16;;;14.41;46.68
59767;BME280;46248;58.364;25.582;2022-09-09T11:48:35;101838.25;;;14.41;46.04
59767;BME280;46248;58.364;25.582;2022-09-09T11:52:11;101839.22;;;14.39;45.02
59767;BME280;46248;58.364;25.582;2022-09-09T11:55:36;101832.41;;;14.35;47.14
59767;BME280;46248;58.364;25.582;2022-09-09T11:59:01;101831.31;;;14.39;47.09
59767;BME280;46248;58.364;25.582;2022-09-09T12:02:28;101826.41;;;14.50;45.88
59767;BME280;46248;58.364;25.582;2022-09-09T12:05:53;101830.72;;;14.53;46.79
59767;BME280;46248;58.364;25.582;2022-09-09T12:09:23;101822.94;;;14.50;46.42
59767;BME280;46248;58.364;25.582;2022-09-09T12:12:48;101815.69;;;14.55;47.08
59767;BME280;46248;58.364;25.582;2022-09-09T12:16:29;101807.84;;;14.53;45.78
59767;BME280;46248;58.364;25.582;2022-09-09T12:20:08;101811.13;;;14.58;46.41
59767;BME280;46248;58.364;25.582;2022-09-09T12:23:40;101810.56;;;14.52;45.78
59767;BME280;46248;58.364;25.582;2022-09-09T12:27:12;101798.63;;;14.43;46.10
59767;BME280;46248;58.364;25.582;2022-09-09T12:30:47;101803.00;;;14.44;45.69
59767;BME280;46248;58.364;25.582;2022-09-09T12:34:16;101800.22;;;14.47;46.45
59767;BME280;46248;58.364;25.582;2022-09-09T12:37:44;101787.31;;;14.41;46.06
59767;BME280;46248;58.364;25.582;2022-09-09T12:41:19;101785.31;;;14.46;46.82
59767;BME280;46248;58.364;25.582;2022-09-09T12:44:52;101778.94;;;14.52;46.69
59767;BME280;46248;58.364;25.582;2022-09-09T12:48:17;101779.50;;;14.58;46.07
59767;BME280;46248;58.364;25.582;2022-09-09T12:51:43;101791.59;;;14.62;46.57
59767;BME280;46248;58.364;25.582;2022-09-09T12:55:21;101776.00;;;14.58;46.38
59767;BME280;46248;58.364;25.582;2022-09-09T12:58:48;101777.72;;;14.59;46.44
59767;BME280;46248;58.364;25.582;2022-09-09T13:02:24;101778.47;;;14.61;44.62
59767;BME280;46248;58.364;25.582;2022-09-09T13:05:51;101766.09;;;14.63;46.42
59767;BME280;46248;58.364;25.582;2022-09-09T13:09:14;101761.19;;;14.55;44.21
59767;BME280;46248;58.364;25.582;2022-09-09T13:12:38;101759.09;;;14.43;44.65
59767;BME280;46248;58.364;25.582;2022-09-09T13:16:04;101763.47;;;14.44;45.64
59767;BME280;46248;58.364;25.582;2022-09-09T13:19:34;101758.41;;;14.39;46.46
59767;BME280;46248;58.364;25.582;2022-09-09T13:22:57;101751.94;;;14.47;46.83
59767;BME280;46248;58.364;25.582;2022-09-09T13:26:23;101746.81;;;14.43;46.00
59767;BME280;46248;58.364;25.582;2022-09-09T13:29:51;101743.38;;;14.41;46.54
59767;BME280;46248;58.364;25.582;2022-09-09T13:33:22;101745.22;;;14.39;46.00
59767;BME280;46248;58.364;25.582;2022-09-09T13:36:48;101745.22;;;14.39;46.49
59767;BME280;46248;58.364;25.582;2022-09-09T13:40:17;101738.16;;;14.40;45.99
59767;BME280;46248;58.364;25.582;2022-09-09T13:43:44;101731.50;;;14.33;46.35
59767;BME280;46248;58.364;25.582;2022-09-09T13:47:18;101744.81;;;14.30;45.43
59767;BME280;46248;58.364;25.582;2022-09-09T13:50:41;101718.69;;;14.25;46.60
59767;BME280;46248;58.364;25.582;2022-09-09T13:54:08;101715.13;;;14.26;47.17
59767;BME280;46248;58.364;25.582;2022-09-09T13:57:32;101730.69;;;14.31;47.20
59767;BME280;46248;58.364;25.582;2022-09-09T14:00:55;101725.28;;;14.34;46.14
59767;BME280;46248;58.364;25.582;2022-09-09T14:04:21;101722.59;;;14.35;46.79
59767;BME280;46248;58.364;25.582;2022-09-09T14:07:44;101714.88;;;14.31;46.63
59767;BME280;46248;58.364;25.582;2022-09-09T14:11:14;101715.81;;;14.30;46.37
59767;BME280;46248;58.364;25.582;2022-09-09T14:14:38;101715.97;;;14.27;46.57
59767;BME280;46248;58.364;25.582;2022-09-09T14:18:01;101715.41;;;14.20;46.19
59767;BME280;46248;58.364;25.582;2022-09-09T14:21:24;101719.97;;;14.16;45.92
59767;BME280;46248;58.364;25.582;2022-09-09T14:24:47;101722.47;;;14.19;46.76
59767;BME280;46248;58.364;25.582;2022-09-09T14:28:12;101713.91;;;14.14;45.98
59767;BME280;46248;58.364;25.582;2022-09-09T14:31:36;101712.50;;;14.07;46.73
59767;BME280;46248;58.364;25.582;2022-09-09T14:34:59;101710.50;;;14.12;47.35
59767;BME280;46248;58.364;25.582;2022-09-09T14:38:22;101709.50;;;14.15;47.05
59767;BME280;46248;58.364;25.582;2022-09-09T14:41:46;101702.44;;;14.15;46.38
59767;BME280;46248;58.364;25.582;2022-09-09T14:45:11;101710.63;;;14.09;45.89
59767;BME280;46248;58.364;25.582;2022-09-09T14:48:34;101697.69;;;14.05;47.17
59767;BME280;46248;58.364;25.582;2022-09-09T14:51:59;101690.72;;;14.04;47.23
59767;BME280;46248;58.364;25.582;2022-09-09T14:55:22;101688.16;;;14.02;46.91
59767;BME280;46248;58.364;25.582;2022-09-09T14:58:45;101686.47;;;14.01;47.50
59767;BME280;46248;58.364;25.582;2022-09-09T15:02:10;101688.31;;;13.99;47.29
59767;BME280;46248;58.364;25.582;2022-09-09T15:05:36;101683.38;;;13.91;46.91
59767;BME280;46248;58.364;25.582;2022-09-09T15:08:59;101677.50;;;13.86;47.73
59767;BME280;46248;58.364;25.582;2022-09-09T15:12:22;101669.09;;;13.78;47.51
59767;BME280;46248;58.364;25.582;2022-09-09T15:15:46;101675.06;;;13.82;48.19
59767;BME280;46248;58.364;25.582;2022-09-09T15:19:13;101677.84;;;13.79;48.46
59767;BME280;46248;58.364;25.582;2022-09-09T15:22:36;101683.97;;;13.79;47.84
59767;BME280;46248;58.364;25.582;2022-09-09T15:25:59;101685.75;;;13.79;48.53
59767;BME280;46248;58.364;25.582;2022-09-09T15:29:22;101677.34;;;13.70;48.76
59767;BME280;46248;58.364;25.582;2022-09-09T15:32:45;101685.22;;;13.70;48.52
59767;BME280;46248;58.364;25.582;2022-09-09T15:36:20;101677.47;;;13.67;49.04
59767;BME280;46248;58.364;25.582;2022-09-09T15:39:44;101676.72;;;13.65;49.44
59767;BME280;46248;58.364;25.582;2022-09-09T15:43:08;101680.47;;;13.60;49.95
59767;BME280;46248;58.364;25.582;2022-09-09T15:46:33;101673.50;;;13.59;49.82
59767;BME280;46248;58.364;25.582;2022-09-09T15:49:59;101676.28;;;13.56;50.15
59767;BME280;46248;58.364;25.582;2022-09-09T15:53:23;101666.88;;;13.50;50.59
59767;BME280;46248;58.364;25.582;2022-09-09T15:56:50;101662.78;;;13.43;50.31
59767;BME280;46248;58.364;25.582;2022-09-09T16:00:14;101668.16;;;13.41;50.65
59767;BME280;46248;58.364;25.582;2022-09-09T16:03:39;101660.66;;;13.32;50.81
59767;BME280;46248;58.364;25.582;2022-09-09T16:07:05;101662.59;;;13.28;51.08
59767;BME280;46248;58.364;25.582;2022-09-09T16:10:30;101669.69;;;13.26;50.93
59767;BME280;46248;58.364;25.582;2022-09-09T16:13:54;101656.09;;;13.15;51.15
59767;BME280;46248;58.364;25.582;2022-09-09T16:17:18;101666.00;;;13.10;50.95
59767;BME280;46248;58.364;25.582;2022-09-09T16:20:41;101661.84;;;13.04;51.04
59767;BME280;46248;58.364;25.582;2022-09-09T16:24:06;101656.09;;;12.95;51.70
59767;BME280;46248;58.364;25.582;2022-09-09T16:27:32;101655.38;;;12.91;52.04
59767;BME280;46248;58.364;25.582;2022-09-09T16:30:56;101660.06;;;12.84;51.89
59767;BME280;46248;58.364;25.582;2022-09-09T16:34:20;101672.66;;;12.76;52.36
59767;BME280;46248;58.364;25.582;2022-09-09T16:37:44;101659.25;;;12.62;52.41
59767;BME280;46248;58.364;25.582;2022-09-09T16:41:08;101668.97;;;12.60;52.83
59767;BME280;46248;58.364;25.582;2022-09-09T16:44:33;101673.81;;;12.49;53.50
59767;BME280;46248;58.364;25.582;2022-09-09T16:47:56;101678.78;;;12.34;53.57
59767;BME280;46248;58.364;25.582;2022-09-09T16:51:21;101688.00;;;12.23;53.79
59767;BME280;46248;58.364;25.582;2022-09-09T16:54:45;101686.75;;;12.09;54.26
59767;BME280;46248;58.364;25.582;2022-09-09T16:58:10;101679.44;;;11.96;55.06
59767;BME280;46248;58.364;25.582;2022-09-09T17:01:37;101686.97;;;11.80;55.51
59767;BME280;46248;58.364;25.582;2022-09-09T17:05:02;101685.81;;;11.65;55.24
59767;BME280;46248;58.364;25.582;2022-09-09T17:08:26;101679.28;;;11.52;55.71
59767;BME280;46248;58.364;25.582;2022-09-09T17:11:49;101688.63;;;11.35;56.88
59767;BME280;46248;58.364;25.582;2022-09-09T17:15:13;101692.69;;;11.19;57.32
59767;BME280;46248;58.364;25.582;2022-09-09T17:18:40;101687.09;;;11.05;57.60
59767;BME280;46248;58.364;25.582;2022-09-09T17:22:04;101684.00;;;10.92;58.27
59767;BME280;46248;58.364;25.582;2022-09-09T17:25:37;101683.66;;;10.76;58.90
59767;BME280;46248;58.364;25.582;2022-09-09T17:29:12;101686.66;;;10.65;57.99
59767;BME280;46248;58.364;25.582;2022-09-09T17:32:36;101686.09;;;10.55;59.01
59767;BME280;46248;58.364;25.582;2022-09-09T17:36:05;101688.22;;;10.44;58.70
59767;BME280;46248;58.364;25.582;2022-09-09T17:39:30;101691.88;;;10.39;58.29
59767;BME280;46248;58.364;25.582;2022-09-09T17:42:53;101690.41;;;10.30;58.91
59767;BME280;46248;58.364;25.582;2022-09-09T17:46:18;101680.28;;;10.18;58.74
59767;BME280;46248;58.364;25.582;2022-09-09T17:49:43;101691.59;;;10.18;58.74
59767;BME280;46248;58.364;25.582;2022-09-09T17:53:07;101689.25;;;10.11;59.20
59767;BME280;46248;58.364;25.582;2022-09-09T17:56:31;101680.69;;;10.04;59.55